createdAt,value
2023-03-21T00:02:14.673Z,8.77
2023-03-21T00:07:17.811Z,9.85
2023-03-21T00:12:26.561Z,9.38
2023-03-21T00:17:32.856Z,9.50
2023-03-21T00:22:45.073Z,9.20
2023-03-21T00:28:08.006Z,8.65
2023-03-21T00:33:25.343Z,8.40
2023-03-21T00:38:30.833Z,7.85
2023-03-21T00:43:37.785Z,8.77
2023-03-21T00:48:43.436Z,8.30
2023-03-21T00:53:46.900Z,8.73
2023-03-21T00:58:52.673Z,11.30
2023-03-21T01:04:06.554Z,12.27
2023-03-21T01:09:21.313Z,12.73
2023-03-21T01:14:28.392Z,12.35
2023-03-21T01:19:48.695Z,12.27
2023-03-21T01:25:08.738Z,7.38
2023-03-21T01:30:37.023Z,9.32
2023-03-21T01:35:50.494Z,8.55
2023-03-21T02:20:18.545Z,9.65
2023-03-21T02:26:30.752Z,9.32
2023-03-21T02:37:44.664Z,8.77
2023-03-21T02:43:22.900Z,6.20
2023-03-21T02:48:48.098Z,6.90
2023-03-21T02:54:26.545Z,6.95
2023-03-21T02:59:30.129Z,5.28
2023-03-21T03:04:33.350Z,6.70
2023-03-21T03:09:58.532Z,6.93
2023-03-21T03:15:22.195Z,6.50
2023-03-21T03:20:39.784Z,6.13
2023-03-21T03:25:49.844Z,6.80
2023-03-21T03:31:34.506Z,6.20
2023-03-21T03:36:42.738Z,6.00
2023-03-21T03:42:18.462Z,5.93
2023-03-21T03:47:32.242Z,6.10
2023-03-21T03:52:57.001Z,5.93
2023-03-21T03:58:13.165Z,6.68
2023-03-21T04:03:23.601Z,7.80
2023-03-21T04:08:27.119Z,7.40
2023-03-21T04:13:33.871Z,6.88
2023-03-21T04:18:44.815Z,7.32
2023-03-21T04:24:01.777Z,7.60
2023-03-21T04:29:11.130Z,6.53
2023-03-21T04:34:21.818Z,6.10
2023-03-21T04:39:27.187Z,5.93
2023-03-21T04:44:41.067Z,5.78
2023-03-21T05:30:30.574Z,7.60
2023-03-21T05:35:36.590Z,6.53
2023-03-21T05:41:04.579Z,6.45
2023-03-21T05:46:15.497Z,6.03
2023-03-21T05:51:30.048Z,4.05
2023-03-21T05:56:34.157Z,4.73
2023-03-21T06:01:40.387Z,5.25
2023-03-21T06:06:46.188Z,4.60
2023-03-21T06:11:55.056Z,5.22
2023-03-21T06:16:59.142Z,6.30
2023-03-21T06:22:18.489Z,5.82
2023-03-21T06:27:21.607Z,5.80
2023-03-21T06:32:30.722Z,6.53
